sensor_id;sensor_type;location;lat;lon;timestamp;pressure;altitude;pressure_sealevel;temperature;humidity
46836;BME280;32573;51.290;6.926;2023-01-25T00:01:04;102231.13;;;1.81;100.00
46836;BME280;32573;51.290;6.926;2023-01-25T00:03:34;102232.81;;;1.80;100.00
46836;BME280;32573;51.290;6.926;2023-01-25T00:06:02;102226.88;;;1.81;100.00
46836;BME280;32573;51.290;6.926;2023-01-25T00:08:31;102224.28;;;1.81;100.00
46836;BME280;32573;51.290;6.926;2023-01-25T00:10:59;102225.06;;;1.80;100.00
46836;BME280;32573;51.290;6.926;2023-01-25T00:13:28;102218.06;;;1.79;100.00
46836;BME280;32573;51.290;6.926;2023-01-25T00:16:00;102215.34;;;1.78;100.00
46836;BME280;32573;51.290;6.926;2023-01-25T00:18:29;102215.97;;;1.75;100.00
46836;BME280;32573;51.290;6.926;2023-01-25T00:20:59;102212.59;;;1.76;100.00
46836;BME280;32573;51.290;6.926;2023-01-25T00:23:38;102213.22;;;1.73;100.00
46836;BME280;32573;51.290;6.926;2023-01-25T00:26:06;102207.28;;;1.75;100.00
46836;BME280;32573;51.290;6.926;2023-01-25T00:28:36;102202.28;;;1.76;100.00
46836;BME280;32573;51.290;6.926;2023-01-25T00:31:06;102205.66;;;1.75;100.00
46836;BME280;32573;51.290;6.926;2023-01-25T00:33:39;102204.72;;;1.75;100.00
46836;BME280;32573;51.290;6.926;2023-01-25T00:36:32;102202.28;;;1.76;100.00
46836;BME280;32573;51.290;6.926;2023-01-25T00:39:03;102195.31;;;1.75;100.00
46836;BME280;32573;51.290;6.926;2023-01-25T00:41:32;102191.97;;;1.76;100.00
46836;BME280;32573;51.290;6.926;2023-01-25T00:44:01;102201.50;;;1.77;100.00
46836;BME280;32573;51.290;6.926;2023-01-25T00:46:29;102189.53;;;1.78;100.00
46836;BME280;32573;51.290;6.926;2023-01-25T00:48:58;102193.94;;;1.79;100.00
46836;BME280;32573;51.290;6.926;2023-01-25T00:51:26;102187.09;;;1.79;100.00
46836;BME280;32573;51.290;6.926;2023-01-25T00:53:56;102180.13;;;1.78;100.00
46836;BME280;32573;51.290;6.926;2023-01-25T00:56:25;102180.13;;;1.78;100.00
46836;BME280;32573;51.290;6.926;2023-01-25T00:58:54;102179.34;;;1.79;100.00
46836;BME280;32573;51.290;6.926;2023-01-25T01:01:22;102178.59;;;1.80;100.00
46836;BME280;32573;51.290;6.926;2023-01-25T01:03:51;102178.59;;;1.80;100.00
46836;BME280;32573;51.290;6.926;2023-01-25T01:06:19;102175.25;;;1.81;100.00
46836;BME280;32573;51.290;6.926;2023-01-25T01:08:48;102176.75;;;1.79;100.00
46836;BME280;32573;51.290;6.926;2023-01-25T01:11:18;102176.75;;;1.79;100.00
46836;BME280;32573;51.290;6.926;2023-01-25T01:13:46;102179.22;;;1.78;100.00
46836;BME280;32573;51.290;6.926;2023-01-25T01:16:14;102177.38;;;1.77;100.00
46836;BME280;32573;51.290;6.926;2023-01-25T01:18:44;102173.13;;;1.77;100.00
46836;BME280;32573;51.290;6.926;2023-01-25T01:21:13;102173.13;;;1.77;100.00
46836;BME280;32573;51.290;6.926;2023-01-25T01:23:41;102183.44;;;1.77;100.00
46836;BME280;32573;51.290;6.926;2023-01-25T01:26:12;102192.13;;;1.78;100.00
46836;BME280;32573;51.290;6.926;2023-01-25T01:28:42;102179.84;;;1.75;100.00
46836;BME280;32573;51.290;6.926;2023-01-25T01:31:12;102178.00;;;1.74;100.00
46836;BME280;32573;51.290;6.926;2023-01-25T01:33:47;102184.84;;;1.73;100.00
46836;BME280;32573;51.290;6.926;2023-01-25T01:36:18;102183.94;;;1.73;100.00
46836;BME280;32573;51.290;6.926;2023-01-25T01:38:46;102181.47;;;1.75;100.00
46836;BME280;32573;51.290;6.926;2023-01-25T01:41:16;102188.31;;;1.74;100.00
46836;BME280;32573;51.290;6.926;2023-01-25T01:43:46;102181.34;;;1.73;100.00
46836;BME280;32573;51.290;6.926;2023-01-25T01:46:20;102179.50;;;1.72;100.00
46836;BME280;32573;51.290;6.926;2023-01-25T01:48:51;102172.25;;;1.68;100.00
46836;BME280;32573;51.290;6.926;2023-01-25T01:51:27;102171.19;;;1.66;100.00
46836;BME280;32573;51.290;6.926;2023-01-25T01:54:02;102164.22;;;1.65;100.00
46836;BME280;32573;51.290;6.926;2023-01-25T01:56:36;102169.22;;;1.63;100.00
46836;BME280;32573;51.290;6.926;2023-01-25T01:59:08;102166.81;;;1.65;100.00
46836;BME280;32573;51.290;6.926;2023-01-25T02:04:07;102166.66;;;1.63;100.00
46836;BME280;32573;51.290;6.926;2023-01-25T02:06:43;102168.31;;;1.63;100.00
46836;BME280;32573;51.290;6.926;2023-01-25T02:09:17;102168.31;;;1.63;100.00
46836;BME280;32573;51.290;6.926;2023-01-25T02:11:49;102161.03;;;1.59;100.00
46836;BME280;32573;51.290;6.926;2023-01-25T02:14:19;102162.28;;;1.54;100.00
46836;BME280;32573;51.290;6.926;2023-01-25T02:16:48;102168.81;;;1.50;100.00
46836;BME280;32573;51.290;6.926;2023-01-25T02:19:26;102169.28;;;1.46;100.00
46836;BME280;32573;51.290;6.926;2023-01-25T02:22:02;102159.56;;;1.43;100.00
46836;BME280;32573;51.290;6.926;2023-01-25T02:24:37;102161.09;;;1.41;100.00
46836;BME280;32573;51.290;6.926;2023-01-25T02:27:11;102158.66;;;1.43;100.00
46836;BME280;32573;51.290;6.926;2023-01-25T02:29:39;102159.56;;;1.43;100.00
46836;BME280;32573;51.290;6.926;2023-01-25T02:32:08;102156.81;;;1.42;100.00
46836;BME280;32573;51.290;6.926;2023-01-25T02:34:37;102153.50;;;1.43;100.00
46836;BME280;32573;51.290;6.926;2023-01-25T02:37:07;102153.63;;;1.44;100.00
46836;BME280;32573;51.290;6.926;2023-01-25T02:39:36;102151.06;;;1.44;100.00
46836;BME280;32573;51.290;6.926;2023-01-25T02:42:04;102154.69;;;1.46;100.00
46836;BME280;32573;51.290;6.926;2023-01-25T02:44:35;102152.28;;;1.48;100.00
46836;BME280;32573;51.290;6.926;2023-01-25T02:47:04;102150.44;;;1.47;100.00
46836;BME280;32573;51.290;6.926;2023-01-25T02:49:34;102146.22;;;1.47;100.00
46836;BME280;32573;51.290;6.926;2023-01-25T02:52:03;102154.84;;;1.48;100.00
46836;BME280;32573;51.290;6.926;2023-01-25T02:54:31;102161.97;;;1.50;100.00
46836;BME280;32573;51.290;6.926;2023-01-25T02:57:03;102153.47;;;1.51;100.00
46836;BME280;32573;51.290;6.926;2023-01-25T02:59:42;102154.25;;;1.50;100.00
46836;BME280;32573;51.290;6.926;2023-01-25T03:02:12;102162.88;;;1.51;100.00
46836;BME280;32573;51.290;6.926;2023-01-25T03:04:42;102153.19;;;1.48;100.00
46836;BME280;32573;51.290;6.926;2023-01-25T03:07:10;102151.50;;;1.49;100.00
46836;BME280;32573;51.290;6.926;2023-01-25T03:09:38;102152.28;;;1.48;100.00
46836;BME280;32573;51.290;6.926;2023-01-25T03:12:07;102150.59;;;1.48;100.00
46836;BME280;32573;51.290;6.926;2023-01-25T03:14:42;102154.09;;;1.49;100.00
46836;BME280;32573;51.290;6.926;2023-01-25T03:17:11;102153.97;;;1.47;100.00
46836;BME280;32573;51.290;6.926;2023-01-25T03:19:41;102146.97;;;1.46;100.00
46836;BME280;32573;51.290;6.926;2023-01-25T03:22:10;102144.38;;;1.46;100.00
46836;BME280;32573;51.290;6.926;2023-01-25T03:24:38;102152.91;;;1.45;100.00
46836;BME280;32573;51.290;6.926;2023-01-25T03:27:07;102142.56;;;1.45;100.00
46836;BME280;32573;51.290;6.926;2023-01-25T03:29:50;102140.00;;;1.45;100.00
46836;BME280;32573;51.290;6.926;2023-01-25T03:32:21;102139.84;;;1.44;100.00
46836;BME280;32573;51.290;6.926;2023-01-25T03:34:51;102138.03;;;1.43;100.00
46836;BME280;32573;51.290;6.926;2023-01-25T03:37:20;102127.56;;;1.41;100.00
46836;BME280;32573;51.290;6.926;2023-01-25T03:39:49;102136.19;;;1.42;100.00
46836;BME280;32573;51.290;6.926;2023-01-25T03:42:19;102130.13;;;1.41;100.00
46836;BME280;32573;51.290;6.926;2023-01-25T03:44:53;102131.81;;;1.41;100.00
46836;BME280;32573;51.290;6.926;2023-01-25T03:47:22;102121.66;;;1.42;100.00
46836;BME280;32573;51.290;6.926;2023-01-25T03:49:51;102121.66;;;1.42;100.00
46836;BME280;32573;51.290;6.926;2023-01-25T03:52:19;102121.66;;;1.42;100.00
46836;BME280;32573;51.290;6.926;2023-01-25T03:54:49;102114.66;;;1.41;100.00
46836;BME280;32573;51.290;6.926;2023-01-25T03:57:21;102110.09;;;1.39;100.00
46836;BME280;32573;51.290;6.926;2023-01-25T04:00:05;102107.69;;;1.40;100.00
46836;BME280;32573;51.290;6.926;2023-01-25T04:02:43;102108.44;;;1.39;100.00
46836;BME280;32573;51.290;6.926;2023-01-25T04:05:17;102106.75;;;1.40;100.00
46836;BME280;32573;51.290;6.926;2023-01-25T04:07:46;102104.19;;;1.40;100.00
46836;BME280;32573;51.290;6.926;2023-01-25T04:10:19;102099.78;;;1.39;100.00
46836;BME280;32573;51.290;6.926;2023-01-25T04:12:48;102093.72;;;1.38;100.00
46836;BME280;32573;51.290;6.926;2023-01-25T04:15:18;102091.88;;;1.37;100.00
46836;BME280;32573;51.290;6.926;2023-01-25T04:17:47;102088.56;;;1.38;100.00
46836;BME280;32573;51.290;6.926;2023-01-25T04:20:22;102086.72;;;1.37;100.00
46836;BME280;32573;51.290;6.926;2023-01-25T04:22:51;102079.78;;;1.36;100.00
46836;BME280;32573;51.290;6.926;2023-01-25T04:25:24;102077.97;;;1.35;100.00
46836;BME280;32573;51.290;6.926;2023-01-25T04:27:53;102076.91;;;1.33;100.00
46836;BME280;32573;51.290;6.926;2023-01-25T04:30:23;102075.84;;;1.31;100.00
46836;BME280;32573;51.290;6.926;2023-01-25T04:32:53;102061.88;;;1.29;100.00
46836;BME280;32573;51.290;6.926;2023-01-25T04:35:28;102062.66;;;1.28;100.00
46836;BME280;32573;51.290;6.926;2023-01-25T04:37:59;102070.25;;;1.26;100.00
46836;BME280;32573;51.290;6.926;2023-01-25T04:40:35;102071.00;;;1.25;100.00
46836;BME280;32573;51.290;6.926;2023-01-25T04:43:03;102067.53;;;1.25;100.00
46836;BME280;32573;51.290;6.926;2023-01-25T04:45:34;102063.41;;;1.27;100.00
46836;BME280;32573;51.290;6.926;2023-01-25T04:48:11;102067.81;;;1.28;100.00
46836;BME280;32573;51.290;6.926;2023-01-25T04:50:47;102065.25;;;1.28;100.00
46836;BME280;32573;51.290;6.926;2023-01-25T04:53:20;102060.09;;;1.28;100.00
46836;BME280;32573;51.290;6.926;2023-01-25T04:55:48;102059.19;;;1.27;100.00
46836;BME280;32573;51.290;6.926;2023-01-25T04:58:17;102053.88;;;1.26;100.00
46836;BME280;32573;51.290;6.926;2023-01-25T05:00:47;102050.50;;;1.27;100.00
46836;BME280;32573;51.290;6.926;2023-01-25T05:03:15;102048.09;;;1.28;100.00
46836;BME280;32573;51.290;6.926;2023-01-25T05:05:45;102042.16;;;1.29;100.00
46836;BME280;32573;51.290;6.926;2023-01-25T05:08:17;102041.25;;;1.29;100.00
46836;BME280;32573;51.290;6.926;2023-01-25T05:10:46;102037.94;;;1.30;100.00
46836;BME280;32573;51.290;6.926;2023-01-25T05:13:37;102050.06;;;1.31;100.00
46836;BME280;32573;51.290;6.926;2023-01-25T05:16:30;102050.06;;;1.31;100.00
46836;BME280;32573;51.290;6.926;2023-01-25T05:18:59;102045.66;;;1.30;100.00
46836;BME280;32573;51.290;6.926;2023-01-25T05:21:47;102045.66;;;1.30;100.00
46836;BME280;32573;51.290;6.926;2023-01-25T05:24:30;102043.09;;;1.30;100.00
46836;BME280;32573;51.290;6.926;2023-01-25T05:27:02;102043.09;;;1.30;100.00
46836;BME280;32573;51.290;6.926;2023-01-25T05:29:50;102038.69;;;1.29;100.00
46836;BME280;32573;51.290;6.926;2023-01-25T05:32:23;102041.25;;;1.29;100.00
46836;BME280;32573;51.290;6.926;2023-01-25T05:34:51;102036.09;;;1.29;100.00
46836;BME280;32573;51.290;6.926;2023-01-25T05:37:20;102038.69;;;1.29;100.00
46836;BME280;32573;51.290;6.926;2023-01-25T05:39:56;102045.34;;;1.27;100.00
46836;BME280;32573;51.290;6.926;2023-01-25T05:42:25;102039.16;;;1.25;100.00
46836;BME280;32573;51.290;6.926;2023-01-25T05:44:53;102044.00;;;1.22;100.00
46836;BME280;32573;51.290;6.926;2023-01-25T05:47:26;102035.22;;;1.20;100.00
46836;BME280;32573;51.290;6.926;2023-01-25T05:49:55;102050.69;;;1.20;100.00
46836;BME280;32573;51.290;6.926;2023-01-25T05:52:37;102041.91;;;1.18;100.00
46836;BME280;32573;51.290;6.926;2023-01-25T05:55:06;102040.84;;;1.16;100.00
46836;BME280;32573;51.290;6.926;2023-01-25T05:57:36;102040.84;;;1.16;100.00
46836;BME280;32573;51.290;6.926;2023-01-25T06:00:05;102038.28;;;1.16;100.00
46836;BME280;32573;51.290;6.926;2023-01-25T06:02:40;102034.03;;;1.16;100.00
46836;BME280;32573;51.290;6.926;2023-01-25T06:05:14;102041.13;;;1.19;100.00
46836;BME280;32573;51.290;6.926;2023-01-25T06:07:43;102039.47;;;1.19;100.00
46836;BME280;32573;51.290;6.926;2023-01-25T06:10:12;102035.22;;;1.20;100.00
46836;BME280;32573;51.290;6.926;2023-01-25T06:12:48;102021.56;;;1.21;100.00
46836;BME280;32573;51.290;6.926;2023-01-25T06:15:16;102029.47;;;1.22;100.00
46836;BME280;32573;51.290;6.926;2023-01-25T06:17:46;102019.16;;;1.22;100.00
46836;BME280;32573;51.290;6.926;2023-01-25T06:20:23;102025.22;;;1.23;100.00
46836;BME280;32573;51.290;6.926;2023-01-25T06:23:04;102025.22;;;1.23;100.00
46836;BME280;32573;51.290;6.926;2023-01-25T06:25:35;102022.47;;;1.21;100.00
46836;BME280;32573;51.290;6.926;2023-01-25T06:28:04;102024.16;;;1.21;100.00
46836;BME280;32573;51.290;6.926;2023-01-25T06:30:32;102028.25;;;1.19;100.00
46836;BME280;32573;51.290;6.926;2023-01-25T06:33:02;102030.66;;;1.17;100.00
46836;BME280;32573;51.290;6.926;2023-01-25T06:35:31;102026.44;;;1.18;100.00
46836;BME280;32573;51.290;6.926;2023-01-25T06:38:00;102035.09;;;1.18;100.00
46836;BME280;32573;51.290;6.926;2023-01-25T06:40:33;102029.75;;;1.17;100.00
46836;BME280;32573;51.290;6.926;2023-01-25T06:43:07;102027.97;;;1.16;100.00
46836;BME280;32573;51.290;6.926;2023-01-25T06:45:35;102020.34;;;1.17;100.00
46836;BME280;32573;51.290;6.926;2023-01-25T06:48:05;102033.13;;;1.16;100.00
46836;BME280;32573;51.290;6.926;2023-01-25T06:50:34;102028.56;;;1.13;100.00
46836;BME280;32573;51.290;6.926;2023-01-25T06:53:02;102035.53;;;1.14;100.00
46836;BME280;32573;51.290;6.926;2023-01-25T06:55:31;102028.56;;;1.13;100.00
46836;BME280;32573;51.290;6.926;2023-01-25T06:57:59;102032.84;;;1.13;100.00
46836;BME280;32573;51.290;6.926;2023-01-25T07:00:27;102033.56;;;1.12;100.00
46836;BME280;32573;51.290;6.926;2023-01-25T07:02:56;102028.41;;;1.12;100.00
46836;BME280;32573;51.290;6.926;2023-01-25T07:05:28;102029.47;;;1.14;100.00
46836;BME280;32573;51.290;6.926;2023-01-25T07:07:57;102026.75;;;1.12;100.00
46836;BME280;32573;51.290;6.926;2023-01-25T07:10:25;102031.78;;;1.11;100.00
46836;BME280;32573;51.290;6.926;2023-01-25T07:12:53;102023.13;;;1.10;100.00
46836;BME280;32573;51.290;6.926;2023-01-25T07:15:22;102025.84;;;1.12;100.00
46836;BME280;32573;51.290;6.926;2023-01-25T07:17:50;102028.56;;;1.13;100.00
46836;BME280;32573;51.290;6.926;2023-01-25T07:20:19;102036.44;;;1.15;100.00
46836;BME280;32573;51.290;6.926;2023-01-25T07:22:49;102019.16;;;1.14;100.00
46836;BME280;32573;51.290;6.926;2023-01-25T07:25:17;102023.53;;;1.15;100.00
46836;BME280;32573;51.290;6.926;2023-01-25T07:27:45;102027.19;;;1.17;100.00
46836;BME280;32573;51.290;6.926;2023-01-25T07:30:14;102016.13;;;1.18;100.00
46836;BME280;32573;51.290;6.926;2023-01-25T07:32:44;102022.31;;;1.20;100.00
46836;BME280;32573;51.290;6.926;2023-01-25T07:35:12;102025.50;;;1.17;100.00
46836;BME280;32573;51.290;6.926;2023-01-25T07:37:40;102031.44;;;1.16;100.00
46836;BME280;32573;51.290;6.926;2023-01-25T07:40:11;102019.44;;;1.17;100.00
46836;BME280;32573;51.290;6.926;2023-01-25T07:42:40;102018.72;;;1.18;100.00
46836;BME280;32573;51.290;6.926;2023-01-25T07:45:12;102017.94;;;1.19;100.00
46836;BME280;32573;51.290;6.926;2023-01-25T07:47:43;102025.84;;;1.20;100.00
46836;BME280;32573;51.290;6.926;2023-01-25T07:50:11;102014.56;;;1.20;100.00
46836;BME280;32573;51.290;6.926;2023-01-25T07:52:39;102019.72;;;1.20;100.00
46836;BME280;32573;51.290;6.926;2023-01-25T07:55:08;102006.09;;;1.21;100.00
46836;BME280;32573;51.290;6.926;2023-01-25T07:57:39;102007.91;;;1.22;100.00
46836;BME280;32573;51.290;6.926;2023-01-25T08:00:08;102001.22;;;1.24;100.00
46836;BME280;32573;51.290;6.926;2023-01-25T08:02:40;102007.28;;;1.24;100.00
46836;BME280;32573;51.290;6.926;2023-01-25T08:05:10;102009.88;;;1.24;100.00
46836;BME280;32573;51.290;6.926;2023-01-25T08:07:39;102013.38;;;1.25;100.00
46836;BME280;32573;51.290;6.926;2023-01-25T08:10:11;102006.38;;;1.24;100.00
46836;BME280;32573;51.290;6.926;2023-01-25T08:12:44;102013.22;;;1.23;100.00
46836;BME280;32573;51.290;6.926;2023-01-25T08:15:13;102011.09;;;1.19;100.00
46836;BME280;32573;51.290;6.926;2023-01-25T08:17:41;102013.41;;;1.16;100.00
46836;BME280;32573;51.290;6.926;2023-01-25T08:20:10;102010.97;;;1.18;100.00
46836;BME280;32573;51.290;6.926;2023-01-25T08:22:39;102003.97;;;1.17;100.00
46836;BME280;32573;51.290;6.926;2023-01-25T08:25:08;102003.38;;;1.19;100.00
46836;BME280;32573;51.290;6.926;2023-01-25T08:27:37;102000.94;;;1.21;100.00
46836;BME280;32573;51.290;6.926;2023-01-25T08:30:08;101999.44;;;1.23;100.00
46836;BME280;32573;51.290;6.926;2023-01-25T08:32:38;102002.00;;;1.23;100.00
46836;BME280;32573;51.290;6.926;2023-01-25T08:35:07;102001.22;;;1.24;100.00
46836;BME280;32573;51.290;6.926;2023-01-25T08:37:36;101999.44;;;1.23;100.00
46836;BME280;32573;51.290;6.926;2023-01-25T08:40:05;101995.78;;;1.21;100.00
46836;BME280;32573;51.290;6.926;2023-01-25T08:42:34;101996.53;;;1.20;100.00
46836;BME280;32573;51.290;6.926;2023-01-25T08:45:03;101997.03;;;1.16;100.00
46836;BME280;32573;51.290;6.926;2023-01-25T08:47:33;101999.16;;;1.11;100.00
46836;BME280;32573;51.290;6.926;2023-01-25T08:50:02;101992.81;;;1.07;100.00
46836;BME280;32573;51.290;6.926;2023-01-25T08:52:31;101999.50;;;1.05;100.00
46836;BME280;32573;51.290;6.926;2023-01-25T08:54:59;101997.66;;;1.04;100.00
46836;BME280;32573;51.290;6.926;2023-01-25T08:57:28;102000.09;;;1.03;100.00
46836;BME280;32573;51.290;6.926;2023-01-25T08:59:58;101997.53;;;1.03;100.00
46836;BME280;32573;51.290;6.926;2023-01-25T09:02:26;101994.34;;;1.05;100.00
46836;BME280;32573;51.290;6.926;2023-01-25T09:04:56;101993.56;;;1.06;100.00
46836;BME280;32573;51.290;6.926;2023-01-25T09:07:24;101992.03;;;1.08;100.00
46836;BME280;32573;51.290;6.926;2023-01-25T09:09:53;101995.53;;;1.09;100.00
46836;BME280;32573;51.290;6.926;2023-01-25T09:12:21;101987.94;;;1.11;100.00
46836;BME280;32573;51.290;6.926;2023-01-25T09:14:50;101982.00;;;1.12;100.00
46836;BME280;32573;51.290;6.926;2023-01-25T09:17:18;101969.13;;;1.12;100.00
46836;BME280;32573;51.290;6.926;2023-01-25T09:19:46;101981.25;;;1.13;100.00
46836;BME280;32573;51.290;6.926;2023-01-25T09:22:21;101975.50;;;1.15;100.00
46836;BME280;32573;51.290;6.926;2023-01-25T09:24:49;101976.41;;;1.16;100.00
46836;BME280;32573;51.290;6.926;2023-01-25T09:27:20;101977.28;;;1.16;100.00
46836;BME280;32573;51.290;6.926;2023-01-25T09:29:48;101972.75;;;1.14;100.00
46836;BME280;32573;51.290;6.926;2023-01-25T09:32:28;101976.09;;;1.13;100.00
46836;BME280;32573;51.290;6.926;2023-01-25T09:34:56;101963.69;;;1.08;100.00
46836;BME280;32573;51.290;6.926;2023-01-25T09:37:26;101962.50;;;1.05;100.00
46836;BME280;32573;51.290;6.926;2023-01-25T09:39:54;101962.34;;;1.03;100.00
46836;BME280;32573;51.290;6.926;2023-01-25T09:42:33;101963.13;;;1.02;100.00
46836;BME280;32573;51.290;6.926;2023-01-25T09:45:29;101947.66;;;1.02;100.00
46836;BME280;32573;51.290;6.926;2023-01-25T09:48:04;101952.03;;;1.03;100.00
46836;BME280;32573;51.290;6.926;2023-01-25T09:50:38;101952.31;;;1.06;100.00
46836;BME280;32573;51.290;6.926;2023-01-25T09:53:30;101952.47;;;1.08;100.00
46836;BME280;32573;51.290;6.926;2023-01-25T09:56:03;101953.38;;;1.08;100.00
46836;BME280;32573;51.290;6.926;2023-01-25T09:58:38;101951.84;;;1.11;100.00
46836;BME280;32573;51.290;6.926;2023-01-25T10:01:18;101948.50;;;1.12;100.00
46836;BME280;32573;51.290;6.926;2023-01-25T10:04:09;101946.69;;;1.11;100.00
46836;BME280;32573;51.290;6.926;2023-01-25T10:06:42;101945.78;;;1.10;100.00
46836;BME280;32573;51.290;6.926;2023-01-25T10:09:38;101943.22;;;1.10;100.00
46836;BME280;32573;51.290;6.926;2023-01-25T10:12:14;101940.63;;;1.10;100.00
46836;BME280;32573;51.290;6.926;2023-01-25T10:14:43;101939.69;;;1.10;100.00
46836;BME280;32573;51.290;6.926;2023-01-25T10:17:16;101930.31;;;1.10;100.00
46836;BME280;32573;51.290;6.926;2023-01-25T10:20:09;101928.03;;;1.13;100.00
46836;BME280;32573;51.290;6.926;2023-01-25T10:22:45;101935.13;;;1.16;100.00
46836;BME280;32573;51.290;6.926;2023-01-25T10:25:24;101930.25;;;1.19;100.00
46836;BME280;32573;51.290;6.926;2023-01-25T10:28:05;101924.31;;;1.20;100.00
46836;BME280;32573;51.290;6.926;2023-01-25T10:30:38;101928.75;;;1.21;100.00
46836;BME280;32573;51.290;6.926;2023-01-25T10:33:12;101918.28;;;1.19;100.00
46836;BME280;32573;51.290;6.926;2023-01-25T10:35:43;101926.91;;;1.20;100.00
46836;BME280;32573;51.290;6.926;2023-01-25T10:38:17;101917.66;;;1.22;100.00
46836;BME280;32573;51.290;6.926;2023-01-25T10:40:52;101913.56;;;1.24;100.00
46836;BME280;32573;51.290;6.926;2023-01-25T10:43:22;101905.06;;;1.25;100.00
46836;BME280;32573;51.290;6.926;2023-01-25T10:45:50;101898.97;;;1.24;100.00
46836;BME280;32573;51.290;6.926;2023-01-25T10:48:22;101901.44;;;1.23;100.00
46836;BME280;32573;51.290;6.926;2023-01-25T10:50:52;101894.44;;;1.22;100.00
46836;BME280;32573;51.290;6.926;2023-01-25T10:53:32;101891.88;;;1.22;100.00
46836;BME280;32573;51.290;6.926;2023-01-25T10:56:22;101886.72;;;1.22;100.00
46836;BME280;32573;51.290;6.926;2023-01-25T10:59:05;101881.69;;;1.23;100.00
46836;BME280;32573;51.290;6.926;2023-01-25T11:01:35;101882.59;;;1.24;100.00
46836;BME280;32573;51.290;6.926;2023-01-25T11:04:21;101880.03;;;1.24;100.00
46836;BME280;32573;51.290;6.926;2023-01-25T11:06:50;101875.91;;;1.26;100.00
46836;BME280;32573;51.290;6.926;2023-01-25T11:09:33;101869.25;;;1.28;100.00
46836;BME280;32573;51.290;6.926;2023-01-25T11:12:12;101870.13;;;1.28;100.00
46836;BME280;32573;51.290;6.926;2023-01-25T11:14:43;101863.31;;;1.29;100.00
46836;BME280;32573;51.290;6.926;2023-01-25T11:17:25;101867.09;;;1.33;100.00
46836;BME280;32573;51.290;6.926;2023-01-25T11:20:14;101865.53;;;1.35;100.00
46836;BME280;32573;51.290;6.926;2023-01-25T11:22:51;101858.72;;;1.35;100.00
46836;BME280;32573;51.290;6.926;2023-01-25T11:25:25;101851.91;;;1.36;100.00
46836;BME280;32573;51.290;6.926;2023-01-25T11:30:49;101838.09;;;1.35;100.00
46836;BME280;32573;51.290;6.926;2023-01-25T11:33:20;101838.84;;;1.34;100.00
46836;BME280;32573;51.290;6.926;2023-01-25T11:36:03;101827.63;;;1.34;100.00
46836;BME280;32573;51.290;6.926;2023-01-25T11:38:36;101816.41;;;1.33;100.00
46836;BME280;32573;51.290;6.926;2023-01-25T11:41:11;101810.47;;;1.34;100.00
46836;BME280;32573;51.290;6.926;2023-01-25T11:44:00;101812.31;;;1.35;100.00
46836;BME280;32573;51.290;6.926;2023-01-25T11:46:45;101811.53;;;1.36;100.00
46836;BME280;32573;51.290;6.926;2023-01-25T11:49:26;101795.28;;;1.37;100.00
46836;BME280;32573;51.290;6.926;2023-01-25T11:52:04;101783.44;;;1.39;100.00
46836;BME280;32573;51.290;6.926;2023-01-25T11:54:42;101777.53;;;1.40;100.00
46836;BME280;32573;51.290;6.926;2023-01-25T11:57:27;101771.59;;;1.41;100.00
46836;BME280;32573;51.290;6.926;2023-01-25T12:00:07;101770.84;;;1.42;100.00
46836;BME280;32573;51.290;6.926;2023-01-25T12:02:55;101760.50;;;1.42;100.00
46836;BME280;32573;51.290;6.926;2023-01-25T12:05:40;101754.56;;;1.43;100.00
46836;BME280;32573;51.290;6.926;2023-01-25T12:08:25;101749.91;;;1.39;100.00
46836;BME280;32573;51.290;6.926;2023-01-25T12:11:05;101742.66;;;1.35;100.00
46836;BME280;32573;51.290;6.926;2023-01-25T12:13:45;101740.72;;;1.33;100.00
46836;BME280;32573;51.290;6.926;2023-01-25T12:16:38;101732.97;;;1.33;100.00
46836;BME280;32573;51.290;6.926;2023-01-25T12:19:30;101726.91;;;1.32;100.00
46836;BME280;32573;51.290;6.926;2023-01-25T12:22:12;101713.88;;;1.31;100.00
46836;BME280;32573;51.290;6.926;2023-01-25T12:24:51;101711.31;;;1.31;100.00
46836;BME280;32573;51.290;6.926;2023-01-25T12:27:35;101701.09;;;1.32;100.00
46836;BME280;32573;51.290;6.926;2023-01-25T12:30:13;101697.78;;;1.33;100.00
46836;BME280;32573;51.290;6.926;2023-01-25T12:32:47;101690.03;;;1.33;100.00
46836;BME280;32573;51.290;6.926;2023-01-25T12:35:27;101685.78;;;1.34;100.00
46836;BME280;32573;51.290;6.926;2023-01-25T12:38:02;101682.16;;;1.32;100.00
46836;BME280;32573;51.290;6.926;2023-01-25T12:40:43;101678.53;;;1.29;100.00
46836;BME280;32573;51.290;6.926;2023-01-25T12:43:17;101672.19;;;1.26;100.00
46836;BME280;32573;51.290;6.926;2023-01-25T12:45:49;101666.78;;;1.23;100.00
46836;BME280;32573;51.290;6.926;2023-01-25T12:48:21;101666.91;;;1.24;100.00
46836;BME280;32573;51.290;6.926;2023-01-25T12:50:54;101655.06;;;1.26;100.00
46836;BME280;32573;51.290;6.926;2023-01-25T12:53:25;101656.09;;;1.28;100.00
46836;BME280;32573;51.290;6.926;2023-01-25T12:55:55;101642.56;;;1.31;100.00
46836;BME280;32573;51.290;6.926;2023-01-25T12:58:30;101631.63;;;1.34;100.00
46836;BME280;32573;51.290;6.926;2023-01-25T13:01:10;101626.47;;;1.34;100.00
46836;BME280;32573;51.290;6.926;2023-01-25T13:03:53;101619.63;;;1.34;100.00
46836;BME280;32573;51.290;6.926;2023-01-25T13:06:35;101613.31;;;1.31;100.00
46836;BME280;32573;51.290;6.926;2023-01-25T13:09:12;101607.75;;;1.26;100.00
46836;BME280;32573;51.290;6.926;2023-01-25T13:11:44;101603.38;;;1.25;100.00
46836;BME280;32573;51.290;6.926;2023-01-25T13:14:30;101595.63;;;1.25;100.00
46836;BME280;32573;51.290;6.926;2023-01-25T13:17:24;101594.84;;;1.26;100.00
46836;BME280;32573;51.290;6.926;2023-01-25T13:19:56;101574.22;;;1.26;100.00
46836;BME280;32573;51.290;6.926;2023-01-25T13:22:53;101581.31;;;1.28;100.00
46836;BME280;32573;51.290;6.926;2023-01-25T13:25:25;101578.88;;;1.30;100.00